Time;durP1;ratioP1;P1;durP2;ratioP2;P2;SDS_P1;SDS_P2;PMS_P1;PMS_P2;Temp;Humidity;BMP_temperature;BMP_pressure;BME280_temperature;BME280_humidity;BME280_pressure;Samples;Min_cycle;Max_cycle;Signal;HPM_P1;HPM_P2
2022/10/26 00:02:07;;;;;;;19.37;11.30;;;;;;;;;;5087921;28;20032;-70
2022/10/26 00:04:32;;;;;;;23.02;11.88;;;;;;;;;;5088779;28;20477;-70
2022/10/26 00:06:57;;;;;;;28.17;12.98;;;;;;;;;;5093501;28;20077;-70
2022/10/26 00:09:22;;;;;;;22.60;12.83;;;;;;;;;;5091382;28;20036;-70
2022/10/26 00:11:48;;;;;;;39.77;13.07;;;;;;;;;;5093461;28;20409;-69
2022/10/26 00:14:13;;;;;;;33.83;12.33;;;;;;;;;;5090165;28;20284;-70
2022/10/26 00:16:38;;;;;;;21.97;11.87;;;;;;;;;;5086411;28;20036;-70
2022/10/26 00:19:03;;;;;;;37.73;12.13;;;;;;;;;;5093175;28;20036;-70
2022/10/26 00:21:28;;;;;;;46.35;12.30;;;;;;;;;;5092714;28;20063;-69
2022/10/26 00:23:54;;;;;;;60.90;12.67;;;;;;;;;;5091741;28;20024;-70
2022/10/26 00:26:19;;;;;;;72.67;12.70;;;;;;;;;;5111108;27;20586;-70
2022/10/26 00:28:44;;;;;;;45.80;12.30;;;;;;;;;;5109706;28;20267;-69
2022/10/26 00:31:13;;;;;;;73.73;13.40;;;;;;;;;;5106697;28;20366;-70
2022/10/26 00:33:39;;;;;;;52.25;12.85;;;;;;;;;;5092375;28;20019;-70
2022/10/26 00:36:04;;;;;;;82.30;13.20;;;;;;;;;;5109668;28;20024;-69
2022/10/26 00:38:29;;;;;;;68.82;13.05;;;;;;;;;;5113075;28;20307;-70
2022/10/26 00:40:54;;;;;;;35.90;12.23;;;;;;;;;;5111686;28;20026;-71
2022/10/26 00:43:20;;;;;;;45.25;14.43;;;;;;;;;;5103271;28;20023;-70
2022/10/26 00:45:46;;;;;;;52.03;13.53;;;;;;;;;;5109630;27;20092;-70
2022/10/26 00:48:20;;;;;;;68.28;13.90;;;;;;;;;;5106343;28;20080;-70
2022/10/26 00:50:46;;;;;;;120.07;14.95;;;;;;;;;;5098456;28;20045;-70
2022/10/26 00:53:12;;;;;;;83.75;13.98;;;;;;;;;;5097956;28;20027;-70
2022/10/26 00:55:39;;;;;;;101.32;14.15;;;;;;;;;;5096518;28;20031;-70
2022/10/26 00:58:05;;;;;;;57.08;14.05;;;;;;;;;;5097803;28;20024;-70
2022/10/26 01:00:31;;;;;;;118.43;14.20;;;;;;;;;;5091482;27;20059;-70
2022/10/26 01:02:58;;;;;;;113.97;13.98;;;;;;;;;;5107706;28;20074;-70
2022/10/26 01:05:25;;;;;;;70.97;14.52;;;;;;;;;;5108266;28;20027;-70
2022/10/26 01:07:50;;;;;;;68.65;14.38;;;;;;;;;;5111305;27;20031;-70
2022/10/26 01:10:15;;;;;;;47.97;14.93;;;;;;;;;;5097593;28;20028;-71
2022/10/26 01:12:41;;;;;;;63.70;14.27;;;;;;;;;;5106371;28;20035;-69
2022/10/26 01:15:07;;;;;;;67.72;14.70;;;;;;;;;;5114075;28;20016;-71
2022/10/26 01:17:46;;;;;;;52.65;14.63;;;;;;;;;;5109429;28;20123;-71
2022/10/26 01:20:17;;;;;;;69.20;15.75;;;;;;;;;;5108009;28;20027;-70
2022/10/26 01:22:42;;;;;;;57.30;14.77;;;;;;;;;;5109949;27;20028;-70
2022/10/26 01:25:08;;;;;;;39.17;13.90;;;;;;;;;;5108913;28;20067;-69
2022/10/26 01:27:35;;;;;;;60.73;13.83;;;;;;;;;;5112998;28;20088;-69
2022/10/26 01:30:19;;;;;;;61.88;14.57;;;;;;;;;;5112715;28;20304;-69
2022/10/26 01:32:44;;;;;;;60.58;13.52;;;;;;;;;;5109939;27;20497;-70
2022/10/26 01:35:29;;;;;;;86.87;13.13;;;;;;;;;;5115376;28;20034;-70
2022/10/26 01:38:03;;;;;;;71.50;13.80;;;;;;;;;;5069314;28;20264;-69
2022/10/26 01:40:30;;;;;;;40.83;14.07;;;;;;;;;;5110182;27;20027;-70
2022/10/26 01:42:57;;;;;;;36.50;13.30;;;;;;;;;;5104421;27;20028;-70
2022/10/26 01:45:23;;;;;;;64.75;12.35;;;;;;;;;;5104215;27;20020;-70
2022/10/26 01:47:48;;;;;;;57.55;12.95;;;;;;;;;;5104492;27;20016;-70
2022/10/26 01:50:14;;;;;;;52.20;13.10;;;;;;;;;;5090636;28;20038;-71
2022/10/26 01:52:39;;;;;;;43.70;12.50;;;;;;;;;;5092410;28;20280;-70
2022/10/26 01:55:23;;;;;;;45.08;12.85;;;;;;;;;;5109050;28;20431;-71
2022/10/26 01:57:50;;;;;;;43.85;13.23;;;;;;;;;;5108287;28;20098;-70
2022/10/26 02:00:15;;;;;;;31.60;12.40;;;;;;;;;;5109537;28;20020;-70
2022/10/26 02:02:41;;;;;;;25.63;12.20;;;;;;;;;;5107702;28;20034;-69
2022/10/26 02:05:30;;;;;;;45.30;11.80;;;;;;;;;;5092417;28;20340;-71
2022/10/26 02:08:04;;;;;;;32.70;11.63;;;;;;;;;;5109991;28;20077;-71
2022/10/26 02:10:32;;;;;;;28.15;11.63;;;;;;;;;;5106832;28;20020;-71
2022/10/26 02:13:00;;;;;;;65.78;13.05;;;;;;;;;;5109232;28;20020;-70
2022/10/26 02:15:46;;;;;;;70.70;11.75;;;;;;;;;;5108528;28;20032;-70
2022/10/26 02:18:23;;;;;;;30.30;11.73;;;;;;;10.24;nan;101147.00;5109955;27;20062;-71
2022/10/26 02:20:50;;;;;;;22.25;12.48;;;;;;;;;;5111925;27;20484;-71
2022/10/26 02:23:15;;;;;;;35.50;12.60;;;;;;;;;;5109858;28;20036;-70
2022/10/26 02:25:44;;;;;;;49.42;12.73;;;;;;;;;;5089679;28;20043;-70
2022/10/26 02:28:14;;;;;;;21.83;11.50;;;;;;;10.25;nan;101164.44;5110130;28;20024;-70
2022/10/26 02:30:40;;;;;;;40.00;11.65;;;;;;;;;;5115371;28;20016;-71
2022/10/26 02:33:09;;;;;;;47.55;12.27;;;;;;;10.25;nan;101148.63;5105826;28;20091;-71
2022/10/26 02:35:37;;;;;;;50.22;12.77;;;;;;;10.25;nan;101150.44;5101999;27;20023;-72
2022/10/26 02:38:05;;;;;;;52.08;11.77;;;;;;;;;;5105415;28;20031;-69
2022/10/26 02:40:31;;;;;;;34.38;12.07;;;;;;;;;;5110669;28;20035;-69
2022/10/26 02:42:58;;;;;;;98.47;11.50;;;;;;;;;;5105860;28;20709;-70
2022/10/26 02:45:26;;;;;;;87.53;11.52;;;;;;;;;;5106458;28;20822;-69
2022/10/26 02:47:52;;;;;;;109.22;12.20;;;;;;;;;;5106631;27;20031;-68
2022/10/26 02:50:20;;;;;;;51.47;11.02;;;;;;;;;;5107980;27;20015;-67
2022/10/26 02:52:45;;;;;;;35.40;9.73;;;;;;;;;;5105517;28;20042;-67
2022/10/26 02:55:17;;;;;;;45.70;10.13;;;;;;;;;;5090414;28;20032;-68
2022/10/26 02:57:44;;;;;;;64.47;11.35;;;;;;;;;;5104603;28;20051;-68
2022/10/26 03:00:11;;;;;;;61.60;11.45;;;;;;;;;;5106483;28;20034;-68
2022/10/26 03:02:36;;;;;;;71.15;12.30;;;;;;;;;;5109515;28;20054;-68
2022/10/26 03:05:22;;;;;;;48.50;11.85;;;;;;;;;;5107957;28;20015;-67
2022/10/26 03:07:47;;;;;;;70.75;10.60;;;;;;;;;;5101818;28;20489;-67
2022/10/26 03:10:12;;;;;;;63.17;10.90;;;;;;;;;;5108443;28;20031;-68
2022/10/26 03:12:38;;;;;;;42.05;11.20;;;;;;;;;;5107538;28;20406;-68
2022/10/26 03:15:03;;;;;;;73.65;11.50;;;;;;;;;;5106973;28;20515;-68
2022/10/26 03:17:28;;;;;;;69.47;12.05;;;;;;;;;;5106112;28;20069;-68
2022/10/26 03:19:55;;;;;;;69.00;11.43;;;;;;;;;;5088997;28;20030;-68
2022/10/26 03:22:20;;;;;;;46.28;11.88;;;;;;;;;;5084915;28;20272;-68
2022/10/26 03:24:45;;;;;;;31.63;11.93;;;;;;;;;;5103115;28;20066;-67
2022/10/26 03:27:11;;;;;;;65.50;13.10;;;;;;;9.77;nan;101209.34;5104914;28;20305;-68
2022/10/26 03:29:36;;;;;;;118.60;16.95;;;;;;;;;;5105447;28;20103;-68
2022/10/26 03:32:01;;;;;;;59.00;12.57;;;;;;;;;;5104424;28;20027;-67
2022/10/26 03:34:26;;;;;;;44.75;12.30;;;;;;;;;;5090704;28;20303;-68
2022/10/26 03:36:52;;;;;;;53.93;13.20;;;;;;;;;;5105852;28;20506;-68
2022/10/26 03:39:17;;;;;;;33.90;11.30;;;;;;;;;;5106325;28;20725;-66
2022/10/26 03:41:43;;;;;;;37.70;11.57;;;;;;;;;;5102004;28;20286;-67
2022/10/26 03:44:08;;;;;;;53.40;12.10;;;;;;;;;;5086098;28;20107;-68
2022/10/26 03:46:33;;;;;;;35.42;11.65;;;;;;;;;;5101063;28;20040;-67
2022/10/26 03:48:58;;;;;;;28.45;12.13;;;;;;;;;;5088539;28;20031;-68
2022/10/26 03:51:24;;;;;;;43.93;11.93;;;;;;;;;;5107530;28;20521;-68
2022/10/26 03:53:49;;;;;;;40.07;11.83;;;;;;;;;;5105678;28;20417;-67
2022/10/26 03:56:14;;;;;;;49.03;11.00;;;;;;;;;;5107844;28;20272;-70
2022/10/26 03:58:39;;;;;;;49.47;12.23;;;;;;;;;;5088957;28;20279;-71
2022/10/26 04:01:05;;;;;;;50.27;12.07;;;;;;;9.63;nan;101213.75;5105527;28;20688;-70
2022/10/26 04:03:30;;;;;;;34.08;12.65;;;;;;;;;;5107460;28;20404;-71
2022/10/26 04:05:58;;;;;;;46.87;12.60;;;;;;;;;;5103519;28;20030;-71
2022/10/26 04:08:24;;;;;;;42.17;12.80;;;;;;;;;;5089353;28;20367;-71
2022/10/26 04:10:49;;;;;;;47.75;13.05;;;;;;;;;;5106236;28;20476;-69
2022/10/26 04:13:14;;;;;;;59.30;11.83;;;;;;;;;;5107964;28;20031;-71
2022/10/26 04:15:40;;;;;;;41.88;12.07;;;;;;;;;;5106105;28;20027;-72
2022/10/26 04:18:05;;;;;;;39.30;13.20;;;;;;;;;;5107939;28;20055;-71
2022/10/26 04:20:32;;;;;;;55.07;12.47;;;;;;;;;;5090076;28;20462;-72
2022/10/26 04:22:57;;;;;;;69.30;12.25;;;;;;;;;;5105864;28;20833;-71
2022/10/26 04:25:22;;;;;;;77.93;12.63;;;;;;;;;;5106611;28;20051;-70
2022/10/26 04:27:47;;;;;;;88.50;12.90;;;;;;;;;;5106756;28;20344;-70
2022/10/26 04:30:13;;;;;;;53.70;12.87;;;;;;;;;;5089193;28;20154;-71
2022/10/26 04:32:38;;;;;;;55.20;12.63;;;;;;;;;;5102270;28;20073;-71
2022/10/26 04:35:03;;;;;;;71.97;12.93;;;;;;;;;;5090506;28;20283;-70
2022/10/26 04:37:28;;;;;;;53.70;13.73;;;;;;;;;;5104554;28;20030;-71
2022/10/26 04:39:54;;;;;;;40.93;13.10;;;;;;;;;;5104720;28;20039;-71
2022/10/26 04:42:19;;;;;;;47.00;13.60;;;;;;;;;;5107328;28;20066;-71
2022/10/26 04:44:44;;;;;;;65.87;13.83;;;;;;;;;;5089148;28;20278;-71
2022/10/26 04:47:09;;;;;;;89.37;14.27;;;;;;;;;;5108079;28;20059;-71
2022/10/26 04:49:35;;;;;;;82.10;14.17;;;;;;;;;;5107960;28;20023;-71
2022/10/26 04:52:00;;;;;;;58.93;14.43;;;;;;;;;;5109286;28;20023;-72
2022/10/26 04:54:25;;;;;;;88.10;15.10;;;;;;;;;;5084708;28;20276;-70
2022/10/26 04:56:51;;;;;;;66.73;14.40;;;;;;;;;;5091355;27;20027;-69
2022/10/26 04:59:16;;;;;;;64.03;14.07;;;;;;;;;;5121101;28;20028;-70
2022/10/26 05:01:41;;;;;;;46.50;13.27;;;;;;;;;;5098673;28;20276;-71
2022/10/26 05:04:06;;;;;;;36.97;13.77;;;;;;;;;;5118958;28;20279;-70
2022/10/26 05:06:31;;;;;;;53.27;13.47;;;;;;;;;;5116749;28;20023;-72
2022/10/26 05:08:57;;;;;;;73.70;14.00;;;;;;;;;;5090921;28;20418;-73
2022/10/26 05:11:22;;;;;;;51.10;13.70;;;;;;;;;;5103449;27;20291;-72
2022/10/26 05:13:48;;;;;;;61.47;13.40;;;;;;;;;;5105192;28;20821;-72
2022/10/26 05:16:15;;;;;;;55.58;12.60;;;;;;;;;;5109241;27;20032;-69
2022/10/26 05:18:41;;;;;;;31.85;12.70;;;;;;;;;;5087514;28;20027;-67
2022/10/26 05:21:18;;;;;;;55.07;13.40;;;;;;;;;;5106383;28;20020;-68
2022/10/26 05:24:12;;;;;;;41.15;13.25;;;;;;;;;;5086734;28;20560;-68
2022/10/26 05:27:12;;;;;;;78.13;13.25;;;;;;;;;;4983074;28;20050;-68
2022/10/26 05:33:09;;;;;;;54.55;13.10;;;;;;;;;;4864002;29;20044;-69
2022/10/26 05:35:37;;;;;;;51.58;13.05;;;;;;;;;;4873491;29;20040;-68
2022/10/26 05:38:10;;;;;;;41.65;12.07;;;;;;;;;;4869939;29;20052;-67
2022/10/26 05:40:43;;;;;;;54.50;12.20;;;;;;;;;;4874030;29;20108;-67
2022/10/26 05:43:31;;;;;;;66.45;12.65;;;;;;;;;;4874817;29;20082;-68
2022/10/26 05:46:08;;;;;;;35.53;12.45;;;;;;;;;;4872324;29;20053;-69
2022/10/26 05:48:44;;;;;;;44.13;12.13;;;;;;;;;;4872151;29;20045;-67
2022/10/26 05:51:13;;;;;;;35.22;12.63;;;;;;;;;;4871617;29;20124;-68
2022/10/26 05:53:38;;;;;;;46.47;13.18;;;;;;;;;;4872531;29;20033;-69
2022/10/26 05:56:24;;;;;;;49.70;13.20;;;;;;;;;;4871131;29;20108;-68
2022/10/26 05:58:57;;;;;;;44.85;13.38;;;;;;;;;;4903746;29;20298;-70
2022/10/26 06:01:56;;;;;;;51.97;13.35;;;;;;;;;;4914511;29;20111;-70
2022/10/26 06:04:35;;;;;;;47.90;12.57;;;;;;;;;;4959874;28;20046;-69
2022/10/26 06:07:34;;;;;;;80.10;13.43;;;;;;;;;;4984906;28;20038;-67
2022/10/26 06:09:59;;;;;;;50.03;14.32;;;;;;;;;;5085150;28;20024;-67
2022/10/26 06:15:38;;;;;;;72.55;14.02;;;;;;;;;;5087552;28;20039;-68
2022/10/26 06:18:21;;;;;;;54.90;12.70;;;;;;;;;;5080093;28;20489;-69
2022/10/26 06:23:57;;;;;;;46.35;13.48;;;;;;;;;;5039689;28;20246;-66
2022/10/26 06:26:35;;;;;;;70.50;14.82;;;;;;;;;;5040809;28;20083;-66
2022/10/26 06:29:10;;;;;;;41.05;14.95;;;;;;;;;;5037878;28;20510;-67
2022/10/26 06:31:35;;;;;;;41.42;15.48;;;;;;;;;;5036213;28;20041;-68
2022/10/26 06:34:01;;;;;;;40.88;15.05;;;;;;;;;;5044848;28;20549;-67
2022/10/26 06:36:27;;;;;;;49.75;15.65;;;;;;;;;;5046781;28;20166;-67
2022/10/26 06:38:59;;;;;;;46.13;15.68;;;;;;;;;;5046352;28;20116;-67
2022/10/26 06:41:25;;;;;;;67.85;17.42;;;;;;;;;;5037990;28;20047;-68
2022/10/26 06:43:51;;;;;;;60.90;17.98;;;;;;;;;;5041069;28;20037;-67
2022/10/26 06:46:36;;;;;;;110.97;17.85;;;;;;;;;;5040079;28;20033;-68
2022/10/26 06:49:06;;;;;;;81.40;15.05;;;;;;;;;;5036840;28;20041;-68
2022/10/26 06:51:35;;;;;;;72.60;15.65;;;;;;;;;;5036516;28;20151;-70
2022/10/26 06:54:11;;;;;;;38.43;16.20;;;;;;;;;;5034316;28;20136;-70
2022/10/26 06:56:36;;;;;;;36.38;15.70;;;;;;;;;;5034141;28;20060;-73
2022/10/26 06:59:22;;;;;;;55.70;17.25;;;;;;;;;;5038269;28;20421;-70
2022/10/26 07:01:50;;;;;;;59.17;14.48;;;;;;;;;;5075197;28;20036;-69
2022/10/26 07:04:24;;;;;;;69.72;14.07;;;;;;;;;;5083955;28;20339;-69
2022/10/26 07:06:56;;;;;;;71.05;14.48;;;;;;;;;;5090106;28;20101;-71
2022/10/26 07:09:30;;;;;;;58.10;12.77;;;;;;;;;;5088408;28;20074;-69
2022/10/26 07:12:04;;;;;;;73.32;14.15;;;;;;;;;;5092195;28;20485;-70
2022/10/26 07:14:30;;;;;;;69.70;13.18;;;;;;;;;;5083223;28;20241;-71
2022/10/26 07:17:15;;;;;;;39.72;12.52;;;;;;;;;;5081514;28;20492;-68
2022/10/26 07:19:43;;;;;;;35.70;12.95;;;;;;;;;;5042308;28;20080;-69
2022/10/26 07:22:09;;;;;;;41.58;12.73;;;;;;;;;;5024276;28;20037;-70
2022/10/26 07:24:34;;;;;;;57.97;14.52;;;;;;;;;;5029013;28;20037;-67
2022/10/26 07:27:00;;;;;;;41.63;14.40;;;;;;;10.10;nan;101313.81;5029124;28;20812;-69
2022/10/26 07:29:26;;;;;;;56.97;15.38;;;;;;;;;;5047223;28;20041;-69
2022/10/26 07:31:51;;;;;;;41.92;15.77;;;;;;;;;;5043501;28;20032;-69
2022/10/26 07:34:16;;;;;;;55.50;15.93;;;;;;;;;;5045933;28;20045;-68
2022/10/26 07:36:41;;;;;;;62.57;16.50;;;;;;;;;;5044594;28;20422;-68
2022/10/26 07:39:07;;;;;;;1999.90;999.90;;;;;;;;;;5021399;28;20270;-68
2022/10/26 07:41:32;;;;;;;154.20;57.40;;;;;;;;;;5037915;28;20033;-68
2022/10/26 07:43:57;;;;;;;107.70;26.87;;;;;;;;;;5042194;28;20067;-68
2022/10/26 07:46:23;;;;;;;167.32;30.85;;;;;;;;;;5044547;28;23340;-68
2022/10/26 07:48:48;;;;;;;123.03;27.08;;;;;;;;;;5046898;28;20102;-68
2022/10/26 07:51:13;;;;;;;87.10;22.63;;;;;;;;;;5073550;28;20044;-72
2022/10/26 07:53:39;;;;;;;81.45;21.98;;;;;;;;;;5074724;28;20029;-73
2022/10/26 07:56:05;;;;;;;64.15;20.52;;;;;;;;;;5630874;22;20565;-71
2022/10/26 07:58:30;;;;;;;59.80;20.30;;;;;;;;;;5024460;28;20402;-72
2022/10/26 08:00:55;;;;;;;67.27;20.40;;;;;;;;;;5022163;28;20025;-74
2022/10/26 08:03:21;;;;;;;78.32;21.75;;;;;;;;;;5035843;28;20039;-73
2022/10/26 08:05:50;;;;;;;58.95;19.15;;;;;;;;;;5036389;28;20024;-74
2022/10/26 08:08:15;;;;;;;62.17;18.63;;;;;;;;;;5029290;28;20047;-73
2022/10/26 08:10:41;;;;;;;53.72;16.80;;;;;;;;;;5047938;28;20286;-69
2022/10/26 08:13:07;;;;;;;45.30;17.88;;;;;;;;;;5031854;28;20030;-73
2022/10/26 08:15:32;;;;;;;48.90;18.15;;;;;;;;;;5030873;28;20037;-73
2022/10/26 08:17:57;;;;;;;46.88;18.15;;;;;;;;;;5029448;28;20037;-73
2022/10/26 08:20:23;;;;;;;45.63;19.00;;;;;;;;;;5035556;28;20112;-68
2022/10/26 08:22:48;;;;;;;46.43;18.13;;;;;;;;;;5052034;28;20037;-69
2022/10/26 08:25:13;;;;;;;44.03;17.73;;;;;;;;;;5040336;28;20351;-70
2022/10/26 08:27:38;;;;;;;46.90;18.13;;;;;;;;;;5039216;28;20278;-69
2022/10/26 08:30:04;;;;;;;48.83;18.80;;;;;;;;;;5046928;28;20278;-69
2022/10/26 08:32:29;;;;;;;49.67;19.05;;;;;;;;;;5040137;28;20288;-70
2022/10/26 08:34:54;;;;;;;52.53;19.27;;;;;;;;;;5037368;28;20028;-69
2022/10/26 08:37:21;;;;;;;50.13;18.87;;;;;;;;;;5036052;28;20493;-70
2022/10/26 08:39:46;;;;;;;46.72;18.15;;;;;;;;;;5043118;28;20294;-70
2022/10/26 08:42:15;;;;;;;46.77;18.80;;;;;;;;;;5033721;28;20478;-70
2022/10/26 08:44:48;;;;;;;48.28;19.70;;;;;;;;;;5026830;28;20033;-70
2022/10/26 08:47:17;;;;;;;55.33;20.92;;;;;;;;;;5031057;28;20494;-69
2022/10/26 08:49:52;;;;;;;53.90;20.73;;;;;;;;;;5037069;28;20119;-71
2022/10/26 08:52:25;;;;;;;57.35;20.58;;;;;;;11.34;nan;101301.88;5050486;28;20071;-70
2022/10/26 08:54:52;;;;;;;55.80;20.67;;;;;;;;;;5035818;28;20103;-70
2022/10/26 08:57:20;;;;;;;63.28;20.75;;;;;;;;;;5033489;28;20056;-70
2022/10/26 08:59:47;;;;;;;52.40;20.42;;;;;;;;;;5036797;28;20021;-70
2022/10/26 09:02:13;;;;;;;54.08;21.25;;;;;;;;;;5039693;28;20025;-69
2022/10/26 09:04:39;;;;;;;56.85;20.85;;;;;;;;;;5045905;28;20021;-69
2022/10/26 09:07:14;;;;;;;57.03;21.48;;;;;;;;;;5039940;28;20044;-70
2022/10/26 09:09:57;;;;;;;57.58;22.10;;;;;;;;;;5041243;28;20025;-70
2022/10/26 09:12:23;;;;;;;56.95;22.27;;;;;;;;;;5036036;28;20108;-71
2022/10/26 09:14:54;;;;;;;57.47;22.63;;;;;;;;;;5033205;28;20455;-72
2022/10/26 09:17:19;;;;;;;59.60;23.60;;;;;;;;;;5035048;28;20580;-71
2022/10/26 09:19:56;;;;;;;61.47;23.87;;;;;;;;;;5032761;28;20060;-69
2022/10/26 09:22:35;;;;;;;57.78;23.02;;;;;;;;;;5057428;28;20059;-71
2022/10/26 09:25:17;;;;;;;56.60;23.70;;;;;;;11.75;nan;101348.19;5034962;28;20099;-73
2022/10/26 09:27:45;;;;;;;49.78;21.92;;;;;;;;;;5032108;28;20032;-68
2022/10/26 09:30:15;;;;;;;50.05;22.13;;;;;;;;;;5024251;28;20115;-73
2022/10/26 09:32:43;;;;;;;50.50;21.73;;;;;;;;;;5040290;28;20506;-72
2022/10/26 09:35:17;;;;;;;47.35;22.52;;;;;;;;;;5037302;28;20457;-72
2022/10/26 09:37:46;;;;;;;45.75;22.00;;;;;;;;;;5032601;28;20105;-72
2022/10/26 09:40:14;;;;;;;48.45;21.77;;;;;;;;;;5035520;28;20025;-71
2022/10/26 09:42:42;;;;;;;47.33;21.05;;;;;;;;;;5042383;28;20031;-74
2022/10/26 09:45:14;;;;;;;40.15;20.20;;;;;;;;;;5042789;28;20021;-73
2022/10/26 09:47:41;;;;;;;37.28;19.88;;;;;;;;;;5043155;28;20393;-73
2022/10/26 09:50:19;;;;;;;42.20;21.65;;;;;;;;;;5043558;28;20021;-72
2022/10/26 09:52:44;;;;;;;42.25;22.33;;;;;;;;;;5036497;28;20029;-71
2022/10/26 09:55:10;;;;;;;43.53;22.20;;;;;;;;;;5041211;28;20385;-72
2022/10/26 09:57:35;;;;;;;45.83;22.67;;;;;;;;;;5052040;28;20046;-73
2022/10/26 10:00:01;;;;;;;44.22;22.00;;;;;;;;;;5039802;28;20383;-73
2022/10/26 10:02:33;;;;;;;43.40;23.13;;;;;;;;;;5037969;28;20050;-73
2022/10/26 10:04:59;;;;;;;48.22;23.80;;;;;;;;;;5041186;28;20737;-74
2022/10/26 10:07:24;;;;;;;52.05;25.50;;;;;;;;;;5041467;28;20029;-73
2022/10/26 10:10:12;;;;;;;52.15;25.50;;;;;;;;;;5040339;28;20029;-71
2022/10/26 10:12:37;;;;;;;53.65;25.55;;;;;;;;;;5053955;28;20026;-74
2022/10/26 10:15:03;;;;;;;47.50;24.17;;;;;;;;;;5040355;28;20021;-74
2022/10/26 10:17:29;;;;;;;49.50;22.77;;;;;;;;;;5036408;28;20021;-75
2022/10/26 10:20:05;;;;;;;54.23;25.83;;;;;;;;;;5040078;28;20021;-75
2022/10/26 10:22:30;;;;;;;50.65;25.20;;;;;;;;;;5036245;28;20278;-74
2022/10/26 10:25:00;;;;;;;51.67;25.90;;;;;;;;;;5037837;28;20025;-74
2022/10/26 10:27:26;;;;;;;59.25;26.75;;;;;;;;;;5041670;28;20113;-74
2022/10/26 10:29:54;;;;;;;51.35;26.05;;;;;;;;;;5040921;28;20059;-73
2022/10/26 10:32:26;;;;;;;52.72;24.80;;;;;;;;;;5041571;28;20047;-73
2022/10/26 10:34:52;;;;;;;53.90;26.05;;;;;;;;;;5038302;28;20025;-70
2022/10/26 10:37:23;;;;;;;53.15;25.38;;;;;;;;;;5053254;28;20122;-73
2022/10/26 10:39:49;;;;;;;55.80;25.20;;;;;;;;;;5038883;28;20014;-71
2022/10/26 10:42:26;;;;;;;52.78;26.98;;;;;;;;;;5041179;28;20460;-72
2022/10/26 10:44:52;;;;;;;45.15;22.70;;;;;;;;;;5036691;28;20026;-73
2022/10/26 10:47:41;;;;;;;43.78;21.83;;;;;;;;;;5040774;28;20433;-73
2022/10/26 10:50:17;;;;;;;47.87;22.97;;;;;;;;;;5031532;28;20080;-73
2022/10/26 10:52:43;;;;;;;48.30;21.90;;;;;;;;;;5037910;28;20059;-72
2022/10/26 10:55:14;;;;;;;46.83;22.35;;;;;;;;;;5041090;28;20037;-71
2022/10/26 10:57:57;;;;;;;46.00;22.30;;;;;;;;;;5038208;28;20049;-71
2022/10/26 11:00:23;;;;;;;44.97;23.17;;;;;;;;;;5037917;28;20026;-71
2022/10/26 11:02:52;;;;;;;48.60;22.30;;;;;;;;;;5036234;28;20479;-71
2022/10/26 11:05:30;;;;;;;42.38;21.52;;;;;;;;;;5038186;28;20506;-71
2022/10/26 11:08:15;;;;;;;47.45;23.02;;;;;;;;;;5039091;28;20061;-71
2022/10/26 11:10:48;;;;;;;44.97;22.17;;;;;;;;;;5027050;28;20685;-72
2022/10/26 11:13:20;;;;;;;46.70;22.88;;;;;;;;;;5037418;28;20510;-72
2022/10/26 11:15:48;;;;;;;47.42;23.40;;;;;;;;;;5039567;28;20029;-73
2022/10/26 11:18:16;;;;;;;44.65;22.83;;;;;;;;;;5039431;28;20035;-72
2022/10/26 11:20:46;;;;;;;46.78;23.52;;;;;;;;;;5045824;28;20013;-71
2022/10/26 11:23:11;;;;;;;;;;;;;;;;;;5040281;28;20029;-72
2022/10/26 11:25:39;;;;;;;42.88;21.75;;;;;;;;;;5040986;28;20391;-71
2022/10/26 11:28:10;;;;;;;45.17;21.85;;;;;;;;;;5039860;28;20429;-71
2022/10/26 11:30:38;;;;;;;41.13;21.23;;;;;;;;;;5046759;28;20529;-72
2022/10/26 11:33:29;;;;;;;42.10;21.05;;;;;;;;;;5043461;28;20492;-73
2022/10/26 11:35:57;;;;;;;44.08;21.10;;;;;;;;;;5042651;28;20675;-72
2022/10/26 11:38:31;;;;;;;39.35;20.40;;;;;;;;;;5042154;28;20086;-72
2022/10/26 11:40:57;;;;;;;41.95;20.73;;;;;;;;;;5034841;28;20021;-70
2022/10/26 11:43:29;;;;;;;37.47;20.20;;;;;;;;;;5041094;28;20017;-71
2022/10/26 11:46:07;;;;;;;42.78;19.95;;;;;;;;;;5035995;28;20037;-73
2022/10/26 11:48:52;;;;;;;39.60;20.65;;;;;;;;;;5039210;28;20032;-73
2022/10/26 11:51:37;;;;;;;39.33;19.67;;;;;;;13.48;nan;101337.19;5032863;28;20037;-74
2022/10/26 11:54:08;;;;;;;39.75;21.20;;;;;;;;;;5054072;28;20025;-74
2022/10/26 11:56:37;;;;;;;38.33;19.30;;;;;;;;;;5038492;28;20047;-73
2022/10/26 11:59:02;;;;;;;36.60;19.93;;;;;;;;;;5039639;28;20056;-74
2022/10/26 12:01:28;;;;;;;39.85;19.67;;;;;;;;;;5037419;28;20056;-72
2022/10/26 12:03:54;;;;;;;39.85;20.80;;;;;;;;;;5032950;28;20072;-73
2022/10/26 12:06:23;;;;;;;38.20;19.98;;;;;;;;;;5037114;28;20025;-73
2022/10/26 12:09:04;;;;;;;36.60;19.30;;;;;;;;;;5039555;28;20029;-72
2022/10/26 12:11:32;;;;;;;35.95;18.98;;;;;;;;;;5030487;28;20105;-73
2022/10/26 12:13:58;;;;;;;33.70;18.25;;;;;;;;;;5036712;28;20121;-73
2022/10/26 12:16:31;;;;;;;37.00;19.03;;;;;;;;;;5038122;28;20437;-73
2022/10/26 12:18:58;;;;;;;38.10;18.30;;;;;;;;;;5035484;28;20064;-72
2022/10/26 12:21:27;;;;;;;38.85;19.90;;;;;;;;;;5040320;28;20105;-72
2022/10/26 12:23:53;;;;;;;;;;;;;;;;;;5037061;28;20025;-72
2022/10/26 12:26:27;;;;;;;35.15;17.23;;;;;;;;;;5039873;28;20660;-71
2022/10/26 12:29:01;;;;;;;33.78;17.17;;;;;;;;;;5036067;28;20394;-73
2022/10/26 12:31:36;;;;;;;30.95;16.80;;;;;;;;;;5039380;28;20021;-73
2022/10/26 12:34:02;;;;;;;32.25;16.92;;;;;;;;;;5036775;28;20029;-73
2022/10/26 12:36:45;;;;;;;32.50;17.13;;;;;;;;;;5036138;28;20076;-72
2022/10/26 12:39:29;;;;;;;29.60;17.20;;;;;;;;;;5036645;28;20033;-72
2022/10/26 12:42:09;;;;;;;30.95;16.00;;;;;;;;;;5030878;28;20021;-70
2022/10/26 12:44:40;;;;;;;26.70;15.48;;;;;;;;;;5035686;28;20030;-71
2022/10/26 12:47:06;;;;;;;30.80;16.23;;;;;;;;;;5032921;28;20032;-72
2022/10/26 12:49:50;;;;;;;28.23;15.73;;;;;;;;;;5038914;28;20104;-72
2022/10/26 12:52:19;;;;;;;29.75;14.85;;;;;;;;;;5052336;28;20106;-72
2022/10/26 12:54:50;;;;;;;28.83;15.10;;;;;;;;;;5034115;28;20093;-72
2022/10/26 12:57:24;;;;;;;29.33;15.27;;;;;;;;;;5038190;28;20040;-72
2022/10/26 12:59:58;;;;;;;24.83;14.80;;;;;;;;;;5056727;28;20021;-72
2022/10/26 13:02:36;;;;;;;27.00;13.82;;;;;;;;;;5035477;28;20091;-71
2022/10/26 13:05:19;;;;;;;23.67;13.90;;;;;;;;;;5031205;28;20018;-71
2022/10/26 13:07:45;;;;;;;24.48;14.73;;;;;;;;;;5040626;28;20677;-71
2022/10/26 13:10:10;;;;;;;24.27;14.15;;;;;;;;;;5040253;28;20052;-71
2022/10/26 13:12:38;;;;;;;24.63;15.23;;;;;;;;;;5039273;28;20079;-71
2022/10/26 13:15:06;;;;;;;23.45;13.93;;;;;;;;;;5039915;28;20021;-72
2022/10/26 13:17:32;;;;;;;24.42;13.43;;;;;;;;;;5040604;28;20052;-71
2022/10/26 13:20:04;;;;;;;23.48;13.90;;;;;;;;;;5040463;28;20072;-71
2022/10/26 13:22:30;;;;;;;22.08;13.15;;;;;;;;;;5056255;28;20573;-72
2022/10/26 13:25:03;;;;;;;24.38;13.82;;;;;;;;;;5038787;28;20033;-73
2022/10/26 13:27:31;;;;;;;26.25;13.70;;;;;;;;;;5039751;28;20039;-73
2022/10/26 13:30:02;;;;;;;22.33;14.23;;;;;;;;;;5041190;28;20021;-72
2022/10/26 13:32:48;;;;;;;21.85;13.38;;;;;;;;;;5043491;28;20025;-73
2022/10/26 13:35:14;;;;;;;22.17;12.93;;;;;;;;;;5027396;28;20053;-73
2022/10/26 13:37:43;;;;;;;23.33;13.27;;;;;;;;;;5044519;28;20378;-71
2022/10/26 13:40:08;;;;;;;;;;;;;;;;;;5044465;28;20033;-73
2022/10/26 13:42:43;;;;;;;24.88;13.35;;;;;;;;;;5041961;28;19959;-73
2022/10/26 13:45:10;;;;;;;24.13;14.35;;;;;;;;;;5041458;28;20701;-71
2022/10/26 13:47:35;;;;;;;25.90;14.10;;;;;;;;;;5038257;28;20033;-71
2022/10/26 13:50:09;;;;;;;26.30;14.07;;;;;;;;;;5039609;28;20095;-73
2022/10/26 13:52:37;;;;;;;25.33;12.98;;;;;;;;;;5040481;28;20100;-73
2022/10/26 13:55:16;;;;;;;23.55;13.68;;;;;;;;;;5056828;28;20033;-73
2022/10/26 13:57:45;;;;;;;24.95;13.05;;;;;;;15.82;nan;101313.84;5036758;28;20050;-71
2022/10/26 14:00:13;;;;;;;23.08;12.43;;;;;;;;;;5041306;28;20398;-71
2022/10/26 14:02:42;;;;;;;27.95;12.80;;;;;;;15.89;nan;101303.09;5036557;28;20133;-70
2022/10/26 14:05:09;;;;;;;24.23;13.13;;;;;;;;;;5022802;28;20123;-72
2022/10/26 14:07:34;;;;;;;22.33;12.13;;;;;;;;;;5043695;28;20433;-73
2022/10/26 14:09:59;;;;;;;24.88;13.27;;;;;;;;;;5039848;28;20013;-71
2022/10/26 14:12:27;;;;;;;24.02;12.48;;;;;;;;;;5040599;28;20558;-70
2022/10/26 14:14:55;;;;;;;23.10;12.43;;;;;;;;;;5046950;28;20025;-71
2022/10/26 14:17:21;;;;;;;21.35;12.40;;;;;;;;;;5038932;28;20079;-71
2022/10/26 14:19:47;;;;;;;23.20;12.45;;;;;;;;;;5038562;28;20075;-72
2022/10/26 14:22:20;;;;;;;23.17;11.98;;;;;;;;;;5037503;28;20382;-72
2022/10/26 14:24:50;;;;;;;23.52;12.02;;;;;;;;;;5041856;28;20048;-72
2022/10/26 14:27:15;;;;;;;;;;;;;;;;;;5039304;28;20039;-73
2022/10/26 14:29:40;;;;;;;22.63;12.37;;;;;;;;;;5048396;28;19908;-71
2022/10/26 14:32:24;;;;;;;20.00;12.23;;;;;;;;;;5047335;28;20271;-71
2022/10/26 14:34:50;;;;;;;22.83;12.55;;;;;;;16.08;nan;101255.88;5046732;28;20305;-71